createdAt,value
2022-10-11T00:01:10.792Z,100751.25
2022-10-11T00:03:39.472Z,100752.97
2022-10-11T00:06:09.683Z,100751.25
2022-10-11T00:08:38.488Z,100741.81
2022-10-11T00:11:11.337Z,100756.50
2022-10-11T00:13:40.348Z,100759.19
2022-10-11T00:16:13.884Z,100746.31
2022-10-11T00:18:43.342Z,100722.16
2022-10-11T00:21:14.618Z,100760.19
2022-10-11T00:23:44.445Z,100739.53
2022-10-11T00:26:13.625Z,100693.06
2022-10-11T00:28:42.816Z,100748.34
2022-10-11T00:31:15.580Z,100700.31
2022-10-11T00:33:44.158Z,100732.31
2022-10-11T00:36:15.474Z,100731.38
2022-10-11T00:38:45.481Z,100734.97
2022-10-11T00:41:17.886Z,100760.94
2022-10-11T00:43:46.462Z,100751.31
2022-10-11T00:46:15.195Z,100755.69
2022-10-11T00:48:48.475Z,100741.94
2022-10-11T00:51:44.459Z,100770.69
2022-10-11T00:54:17.505Z,100741.25
2022-10-11T00:56:49.984Z,100749.97
2022-10-11T00:59:24.357Z,100766.41
2022-10-11T01:01:53.410Z,100736.22
2022-10-11T01:04:22.356Z,100720.50
2022-10-11T01:06:52.834Z,100742.16
2022-10-11T01:09:23.180Z,100725.03
2022-10-11T01:11:54.843Z,100756.31
2022-10-11T01:14:36.484Z,100768.44
2022-10-11T01:17:40.172Z,100761.75
2022-10-11T01:20:32.753Z,100755.72
2022-10-11T01:23:32.344Z,100741.19
2022-10-11T01:26:16.911Z,100765.34
2022-10-11T01:29:23.366Z,100772.47
2022-10-11T01:32:10.523Z,100775.16
2022-10-11T01:34:41.637Z,100787.44
2022-10-11T01:37:17.352Z,100747.59
2022-10-11T01:40:00.288Z,100762.38
2022-10-11T01:42:30.584Z,100760.66
2022-10-11T01:45:00.155Z,100751.06
2022-10-11T01:47:29.014Z,100751.13
2022-10-11T01:50:02.088Z,100752.78
2022-10-11T01:52:34.894Z,100732.94
2022-10-11T01:55:26.294Z,100775.25
2022-10-11T01:58:11.868Z,100771.81
2022-10-11T02:01:09.620Z,100786.50
2022-10-11T02:04:04.229Z,100793.25
2022-10-11T02:06:59.471Z,100786.28
2022-10-11T02:09:45.637Z,100798.16
2022-10-11T02:12:19.286Z,100792.91
2022-10-11T02:14:50.318Z,100803.22
2022-10-11T02:17:24.157Z,100761.50
2022-10-11T02:19:55.320Z,100765.72
2022-10-11T02:22:30.755Z,100756.09
2022-10-11T02:25:03.471Z,100788.84
2022-10-11T02:27:35.755Z,100798.16
2022-10-11T02:30:08.020Z,100808.47
2022-10-11T02:32:40.827Z,100813.59
2022-10-11T02:35:10.509Z,100763.28
2022-10-11T02:37:57.728Z,100797.81
2022-10-11T02:40:39.075Z,100786.34
2022-10-11T02:43:18.347Z,100782.84
2022-10-11T02:45:57.328Z,100782.75
2022-10-11T02:48:29.071Z,100797.28
2022-10-11T02:51:00.906Z,100790.19
2022-10-11T02:53:29.486Z,100795.28
2022-10-11T02:55:58.292Z,100793.22
2022-10-11T02:58:26.965Z,100792.25
2022-10-11T03:00:55.482Z,100791.16
2022-10-11T03:03:24.145Z,100810.63
2022-10-11T03:05:58.425Z,100806.72
2022-10-11T03:08:27.044Z,100813.72
2022-10-11T03:10:55.624Z,100807.44
2022-10-11T03:13:24.186Z,100760.53
2022-10-11T03:16:02.822Z,100783.94
2022-10-11T03:18:32.913Z,100783.13
2022-10-11T03:21:01.456Z,100798.81
2022-10-11T03:23:30.122Z,100805.03
2022-10-11T03:25:58.702Z,100783.66
2022-10-11T03:28:27.269Z,100793.13
2022-10-11T03:30:55.953Z,100822.22
2022-10-11T03:33:24.868Z,100808.22
2022-10-11T03:35:53.493Z,100788.81
2022-10-11T03:38:23.799Z,100811.19
2022-10-11T03:40:52.373Z,100803.75
2022-10-11T03:43:21.189Z,100778.63
2022-10-11T03:45:49.842Z,100807.72
2022-10-11T03:48:18.215Z,100822.91
2022-10-11T03:50:46.742Z,100786.41
2022-10-11T03:53:15.644Z,100806.41
2022-10-11T03:55:44.295Z,100791.78
2022-10-11T03:58:13.122Z,100799.44
2022-10-11T04:00:41.480Z,100801.91
2022-10-11T04:03:10.007Z,100798.09
2022-10-11T04:05:38.681Z,100797.97
2022-10-11T04:08:12.270Z,100799.34
2022-10-11T04:10:41.043Z,100804.19
2022-10-11T04:13:11.806Z,100807.56
2022-10-11T04:15:40.456Z,100836.09
2022-10-11T04:18:09.471Z,100835.34
2022-10-11T04:20:38.123Z,100825.75
2022-10-11T04:23:06.696Z,100827.97
2022-10-11T04:25:35.342Z,100822.34
2022-10-11T04:28:03.870Z,100802.06
2022-10-11T04:30:32.354Z,100824.84
2022-10-11T04:33:01.065Z,100816.69
2022-10-11T04:35:29.567Z,100824.78
2022-10-11T04:37:58.150Z,100825.03
2022-10-11T04:40:26.720Z,100827.16
2022-10-11T04:42:57.546Z,100795.44
2022-10-11T04:45:26.227Z,100800.72
2022-10-11T04:47:54.813Z,100843.84
2022-10-11T04:50:23.770Z,100833.13
2022-10-11T04:52:52.368Z,100833.47
2022-10-11T04:55:20.816Z,100809.97
2022-10-11T04:57:49.162Z,100846.50
2022-10-11T05:00:18.181Z,100823.84
2022-10-11T05:02:46.902Z,100836.00
2022-10-11T05:05:18.344Z,100816.59
2022-10-11T05:07:46.845Z,100771.69
2022-10-11T05:10:15.777Z,100827.94
2022-10-11T05:12:44.426Z,100820.06
2022-10-11T05:15:13.010Z,100842.72
2022-10-11T05:17:41.599Z,100822.19
2022-10-11T05:20:10.600Z,100826.16
2022-10-11T05:22:39.583Z,100830.06
2022-10-11T05:25:08.513Z,100818.16
2022-10-11T05:27:37.196Z,100833.72
2022-10-11T05:30:06.725Z,100827.16
2022-10-11T05:32:35.456Z,100833.50
2022-10-11T05:35:03.897Z,100831.97
2022-10-11T05:37:32.587Z,100809.75
2022-10-11T05:40:01.075Z,100850.13
2022-10-11T05:42:29.909Z,100828.56
2022-10-11T05:44:58.631Z,100804.31
2022-10-11T05:47:27.202Z,100792.72
2022-10-11T05:49:55.899Z,100839.88
2022-10-11T05:52:24.584Z,100833.59
2022-10-11T05:54:53.275Z,100808.00
2022-10-11T05:57:21.827Z,100831.56
2022-10-11T05:59:50.961Z,100835.97
2022-10-11T06:02:19.385Z,100819.50
2022-10-11T06:04:48.213Z,100802.06
2022-10-11T06:07:16.669Z,100823.13
2022-10-11T06:09:47.494Z,100787.34
2022-10-11T06:12:16.000Z,100809.91
2022-10-11T06:14:45.299Z,100804.31
2022-10-11T06:17:14.499Z,100816.53
2022-10-11T06:19:43.099Z,100800.34
2022-10-11T06:22:13.258Z,100800.72
2022-10-11T06:24:41.761Z,100807.63
2022-10-11T06:27:10.680Z,100763.03
2022-10-11T06:29:39.265Z,100765.47
2022-10-11T06:32:08.086Z,100792.34
2022-10-11T06:34:36.710Z,100791.44
2022-10-11T06:37:05.404Z,100793.63
2022-10-11T06:39:33.778Z,100753.13
2022-10-11T06:42:03.002Z,100811.53
2022-10-11T06:44:31.700Z,100788.22
2022-10-11T06:47:00.161Z,100800.22
2022-10-11T06:49:28.772Z,100779.94
2022-10-11T06:51:57.593Z,100773.16
2022-10-11T06:54:26.486Z,100758.84
2022-10-11T06:56:55.015Z,100772.28
2022-10-11T06:59:23.708Z,100773.16
2022-10-11T07:01:52.157Z,100776.38
2022-10-11T07:04:20.769Z,100785.75
2022-10-11T07:06:49.153Z,100805.25
2022-10-11T07:09:18.180Z,100792.50
2022-10-11T07:11:49.806Z,100782.16
2022-10-11T07:14:18.456Z,100784.81
2022-10-11T07:16:47.025Z,100783.63
2022-10-11T07:19:15.444Z,100781.09
2022-10-11T07:21:44.048Z,100775.94
2022-10-11T07:24:12.499Z,100757.31
2022-10-11T07:26:41.641Z,100761.81
2022-10-11T07:29:11.305Z,100771.63
2022-10-11T07:31:42.993Z,100782.53
2022-10-11T07:34:12.291Z,100769.50
2022-10-11T07:36:41.053Z,100757.22
2022-10-11T07:39:10.042Z,100773.88
2022-10-11T07:41:44.682Z,100757.63
2022-10-11T07:44:15.385Z,100762.97
2022-10-11T07:46:44.242Z,100766.22
2022-10-11T07:49:12.820Z,100767.78
2022-10-11T07:51:41.415Z,100763.41
2022-10-11T07:54:10.325Z,100763.59
2022-10-11T07:56:40.665Z,100771.09
2022-10-11T07:59:09.491Z,100778.81
2022-10-11T08:01:38.234Z,100767.16
2022-10-11T08:04:07.005Z,100780.59
2022-10-11T08:06:37.342Z,100782.09
2022-10-11T08:09:07.150Z,100791.06
2022-10-11T08:11:38.271Z,100767.56
2022-10-11T08:14:09.881Z,100790.31
2022-10-11T08:16:41.658Z,100741.88
2022-10-11T08:19:11.613Z,100775.22
2022-10-11T08:21:40.249Z,100802.63
2022-10-11T08:24:08.878Z,100787.09
2022-10-11T08:26:37.653Z,100774.19
2022-10-11T08:29:07.022Z,100779.78
2022-10-11T08:31:36.784Z,100783.22
2022-10-11T08:34:05.615Z,100767.19
2022-10-11T08:36:34.214Z,100790.91
2022-10-11T08:39:03.054Z,100790.28
2022-10-11T08:41:40.477Z,100777.34
2022-10-11T08:44:46.195Z,100789.19
2022-10-11T08:47:21.641Z,100791.44
2022-10-11T08:49:51.596Z,100781.94
2022-10-11T08:52:28.264Z,100736.41
2022-10-11T08:55:05.588Z,100778.72
2022-10-11T08:57:38.013Z,100781.41
2022-10-11T09:00:15.834Z,100768.34
2022-10-11T09:03:08.928Z,100790.69
2022-10-11T09:05:53.757Z,100747.84
2022-10-11T09:08:26.716Z,100767.16
2022-10-11T09:10:58.212Z,100787.91
2022-10-11T09:14:02.461Z,100734.59
2022-10-11T09:16:58.878Z,100787.81
2022-10-11T09:19:27.703Z,100790.28
2022-10-11T09:22:29.541Z,100784.06
2022-10-11T09:25:31.120Z,100789.81
2022-10-11T09:28:37.238Z,100799.53
2022-10-11T09:31:09.944Z,100773.97
2022-10-11T09:33:50.136Z,100769.13
2022-10-11T09:37:03.019Z,100778.69
2022-10-11T09:39:38.000Z,100765.81
2022-10-11T09:42:09.383Z,100765.72
2022-10-11T09:44:58.090Z,100749.38
2022-10-11T09:47:33.485Z,100756.00
2022-10-11T09:50:15.337Z,100759.69
2022-10-11T09:53:09.511Z,100756.47
2022-10-11T09:55:41.737Z,100779.28
2022-10-11T09:58:33.147Z,100770.28
2022-10-11T10:01:09.168Z,100773.81
2022-10-11T10:03:40.890Z,100783.00
2022-10-11T10:06:22.870Z,100781.72
2022-10-11T10:08:51.630Z,100772.75
2022-10-11T10:11:20.985Z,100741.44
2022-10-11T10:13:52.018Z,100772.88
2022-10-11T10:16:43.250Z,100770.91
2022-10-11T10:19:25.026Z,100773.50
2022-10-11T10:21:56.015Z,100765.91
2022-10-11T10:24:43.400Z,100766.22
2022-10-11T10:27:13.205Z,100771.91
2022-10-11T10:29:42.378Z,100758.63
2022-10-11T10:32:21.047Z,100695.56
2022-10-11T10:35:08.088Z,100756.41
2022-10-11T10:37:44.130Z,100752.22
2022-10-11T10:40:29.050Z,100752.75
2022-10-11T10:42:57.829Z,100755.22
2022-10-11T10:45:36.130Z,100747.75
2022-10-11T10:49:12.053Z,100770.38
2022-10-11T10:51:58.508Z,100763.44
2022-10-11T10:54:40.679Z,100757.13
2022-10-11T10:57:23.894Z,100753.88
2022-10-11T10:59:55.758Z,100771.81
2022-10-11T11:02:42.665Z,100761.22
2022-10-11T11:05:35.636Z,100768.47
2022-10-11T11:08:34.271Z,100760.53
2022-10-11T11:11:08.710Z,100775.38
2022-10-11T11:14:09.969Z,100774.06
2022-10-11T11:16:41.516Z,100777.91
2022-10-11T11:19:51.628Z,100777.38
2022-10-11T11:22:39.296Z,100769.94
2022-10-11T11:25:29.188Z,100779.09
2022-10-11T11:28:16.844Z,100779.72
2022-10-11T11:31:22.769Z,100784.59
2022-10-11T11:34:03.480Z,100777.94
2022-10-11T11:36:57.358Z,100780.03
2022-10-11T11:39:32.107Z,100781.84
2022-10-11T11:42:19.016Z,100752.94
2022-10-11T11:44:50.775Z,100747.88
2022-10-11T11:47:39.289Z,100753.44
2022-10-11T11:50:23.049Z,100771.59
2022-10-11T11:53:00.087Z,100721.13
2022-10-11T11:55:36.690Z,100769.41
2022-10-11T11:58:17.749Z,100768.75
2022-10-11T12:00:59.610Z,100738.66
2022-10-11T12:03:37.916Z,100747.50
2022-10-11T12:06:15.257Z,100774.34
2022-10-11T12:09:05.142Z,100778.78
2022-10-11T12:11:39.517Z,100781.56
2022-10-11T12:14:28.330Z,100769.91
2022-10-11T12:17:26.107Z,100773.63
2022-10-11T12:20:24.060Z,100775.91
2022-10-11T12:23:01.476Z,100753.81
2022-10-11T12:25:34.008Z,100781.78
2022-10-11T12:28:24.669Z,100756.09
2022-10-11T12:30:54.421Z,100755.56
2022-10-11T12:33:46.270Z,100782.88
2022-10-11T12:36:32.207Z,100778.56
2022-10-11T12:39:21.202Z,100776.28
2022-10-11T12:41:56.209Z,100726.69
2022-10-11T12:44:29.562Z,100767.28
2022-10-11T12:47:01.095Z,100796.13
2022-10-11T12:50:12.789Z,100791.06
2022-10-11T12:52:51.373Z,100775.72
2022-10-11T12:55:47.531Z,100787.47
2022-10-11T12:58:30.163Z,100794.75
2022-10-11T13:00:59.080Z,100788.16
2022-10-11T13:04:03.987Z,100790.16
2022-10-11T13:06:47.426Z,100764.53
2022-10-11T13:09:27.931Z,100793.94
2022-10-11T13:12:06.996Z,100793.50
2022-10-11T13:14:44.099Z,100797.63
2022-10-11T13:17:34.477Z,100784.41
2022-10-11T13:20:18.488Z,100804.38
2022-10-11T13:22:50.403Z,100788.59
2022-10-11T13:25:23.254Z,100808.81
2022-10-11T13:27:55.031Z,100805.91
2022-10-11T13:30:33.330Z,100794.72
2022-10-11T13:33:19.899Z,100789.03
2022-10-11T13:35:49.273Z,100804.09
2022-10-11T13:38:50.918Z,100820.03
2022-10-11T13:41:19.952Z,100812.41
2022-10-11T13:43:48.994Z,100781.09
2022-10-11T13:46:24.394Z,100795.84
2022-10-11T13:49:07.351Z,100819.59
2022-10-11T13:51:38.898Z,100808.19
2022-10-11T13:54:13.583Z,100787.91
2022-10-11T13:56:49.635Z,100791.50
2022-10-11T13:59:28.778Z,100792.59
2022-10-11T14:02:02.571Z,100790.44
2022-10-11T14:04:41.673Z,100802.44
2022-10-11T14:07:26.053Z,100814.91
2022-10-11T14:09:55.659Z,100780.56
2022-10-11T14:12:26.910Z,100826.47
2022-10-11T14:14:55.832Z,100795.25
2022-10-11T14:17:42.351Z,100807.50
2022-10-11T14:20:26.412Z,100821.94
2022-10-11T14:22:58.203Z,100740.09
2022-10-11T14:25:27.642Z,100802.72
2022-10-11T14:27:56.629Z,100794.88
2022-10-11T14:30:27.866Z,100807.75
2022-10-11T14:33:00.525Z,100791.66
2022-10-11T14:35:32.847Z,100811.41
2022-10-11T14:38:02.018Z,100772.22
2022-10-11T14:40:32.421Z,100819.44
2022-10-11T14:43:01.193Z,100816.19
2022-10-11T14:45:29.930Z,100818.84
2022-10-11T14:47:58.538Z,100807.19
2022-10-11T14:50:36.463Z,100814.91
2022-10-11T14:53:08.070Z,100806.50
2022-10-11T14:55:38.291Z,100802.44
2022-10-11T14:58:09.106Z,100828.47
2022-10-11T15:00:38.251Z,100825.06
2022-10-11T15:03:08.033Z,100770.06
2022-10-11T15:05:38.200Z,100813.13
2022-10-11T15:08:08.040Z,100809.91
2022-10-11T15:10:39.631Z,100769.91
2022-10-11T15:13:09.482Z,100800.16
2022-10-11T15:15:42.082Z,100750.97
2022-10-11T15:18:17.326Z,100824.34
2022-10-11T15:20:47.355Z,100797.00
2022-10-11T15:23:16.337Z,100828.50
2022-10-11T15:25:45.397Z,100820.22
2022-10-11T15:28:33.836Z,100817.13
2022-10-11T15:31:02.944Z,100825.78
2022-10-11T15:33:31.791Z,100808.75
2022-10-11T15:36:00.669Z,100809.56
2022-10-11T15:38:29.796Z,100825.50
2022-10-11T15:40:59.356Z,100758.44
2022-10-11T15:43:31.089Z,100787.78
2022-10-11T15:45:59.874Z,100800.22
2022-10-11T15:48:29.700Z,100785.03
2022-10-11T15:50:59.301Z,100829.09
2022-10-11T15:53:32.163Z,100797.22
2022-10-11T15:56:06.854Z,100816.25
2022-10-11T15:58:38.749Z,100785.59
2022-10-11T16:01:12.584Z,100789.16
2022-10-11T16:03:41.858Z,100779.19
2022-10-11T16:06:11.412Z,100798.75
2022-10-11T16:08:41.196Z,100796.44
2022-10-11T16:11:11.514Z,100801.41
2022-10-11T16:13:40.558Z,100808.50
2022-10-11T16:16:10.551Z,100795.59
2022-10-11T16:18:39.761Z,100822.22
2022-10-11T16:21:10.682Z,100812.06
2022-10-11T16:23:39.715Z,100826.59
2022-10-11T16:26:12.808Z,100810.22
2022-10-11T16:28:42.901Z,100786.13
2022-10-11T16:31:16.375Z,100832.78
2022-10-11T16:33:51.184Z,100779.41
2022-10-11T16:36:41.583Z,100835.41
2022-10-11T16:39:17.102Z,100817.16
2022-10-11T16:41:46.457Z,100817.38
2022-10-11T16:44:19.652Z,100820.59
2022-10-11T16:46:49.724Z,100816.28
2022-10-11T16:49:22.761Z,100805.19
2022-10-11T16:51:55.772Z,100794.81
2022-10-11T16:54:28.351Z,100820.66
2022-10-11T16:56:58.573Z,100787.25
2022-10-11T16:59:27.513Z,100807.16
2022-10-11T17:01:58.495Z,100799.50
2022-10-11T17:04:27.178Z,100814.31
2022-10-11T17:06:55.916Z,100805.88
2022-10-11T17:09:25.253Z,100787.94
2022-10-11T17:11:54.099Z,100811.53
2022-10-11T17:14:22.867Z,100815.25
2022-10-11T17:16:51.512Z,100819.81
2022-10-11T17:19:20.249Z,100793.16
2022-10-11T17:21:49.220Z,100830.31
2022-10-11T17:24:18.032Z,100823.38
2022-10-11T17:26:46.749Z,100818.34
2022-10-11T17:29:17.119Z,100807.03
2022-10-11T17:31:49.203Z,100814.06
2022-10-11T17:34:18.866Z,100801.25
2022-10-11T17:36:48.112Z,100799.34
2022-10-11T17:39:19.739Z,100809.78
2022-10-11T17:41:48.769Z,100826.81
2022-10-11T17:44:20.625Z,100779.41
2022-10-11T17:46:49.447Z,100796.41
2022-10-11T17:49:21.783Z,100776.47
2022-10-11T17:51:51.550Z,100805.53
2022-10-11T17:54:20.199Z,100792.34
2022-10-11T17:56:48.750Z,100821.47
2022-10-11T17:59:19.499Z,100800.84
2022-10-11T18:01:49.327Z,100816.84
2022-10-11T18:04:20.489Z,100817.63
2022-10-11T18:06:52.350Z,100726.38
2022-10-11T18:09:21.477Z,100808.63
2022-10-11T18:11:50.397Z,100779.41
2022-10-11T18:14:19.148Z,100798.31
2022-10-11T18:16:47.695Z,100789.88
2022-10-11T18:19:16.352Z,100785.75
2022-10-11T18:21:44.978Z,100782.31
2022-10-11T18:24:16.611Z,100769.22
2022-10-11T18:26:46.580Z,100795.16
2022-10-11T18:29:15.635Z,100776.22
2022-10-11T18:31:44.460Z,100794.06
2022-10-11T18:34:14.551Z,100792.16
2022-10-11T18:36:43.998Z,100768.94
2022-10-11T18:39:15.509Z,100782.84
2022-10-11T18:41:45.298Z,100804.31
2022-10-11T18:44:16.416Z,100785.19
2022-10-11T18:46:45.939Z,100777.81
2022-10-11T18:49:15.058Z,100800.38
2022-10-11T18:54:13.898Z,100791.84
2022-10-11T18:56:50.494Z,100778.16
2022-10-11T18:59:20.943Z,100790.00
2022-10-11T19:01:52.796Z,100792.63
2022-10-11T19:04:24.494Z,100777.03
2022-10-11T19:06:55.254Z,100719.25
2022-10-11T19:09:26.890Z,100778.81
2022-10-11T19:11:57.311Z,100730.75
2022-10-11T19:14:29.291Z,100759.88
2022-10-11T19:16:58.708Z,100758.25
2022-10-11T19:19:29.528Z,100748.81
2022-10-11T19:21:58.331Z,100770.22
2022-10-11T19:24:29.451Z,100769.63
2022-10-11T19:27:02.580Z,100757.44
2022-10-11T19:29:32.374Z,100749.78
2022-10-11T19:32:04.291Z,100767.91
2022-10-11T19:34:33.596Z,100771.41
2022-10-11T19:37:03.942Z,100740.53
2022-10-11T19:39:33.121Z,100711.31
2022-10-11T19:42:02.351Z,100727.78
2022-10-11T19:44:32.505Z,100757.97
2022-10-11T19:47:05.631Z,100770.13
2022-10-11T19:49:34.361Z,100760.09
2022-10-11T19:52:03.073Z,100751.56
2022-10-11T19:54:32.671Z,100769.97
2022-10-11T19:57:01.432Z,100775.97
2022-10-11T19:59:29.870Z,100740.44
2022-10-11T20:01:58.513Z,100748.03
2022-10-11T20:04:51.159Z,100755.59
2022-10-11T20:07:15.751Z,100741.72
2022-10-11T20:09:46.549Z,100731.13
2022-10-11T20:12:15.225Z,100687.31
2022-10-11T20:14:43.859Z,100730.47
2022-10-11T20:17:12.371Z,100728.16
2022-10-11T20:19:41.491Z,100726.03
2022-10-11T20:22:10.400Z,100742.53
2022-10-11T20:24:39.091Z,100737.69
2022-10-11T20:27:07.862Z,100746.53
2022-10-11T20:29:36.263Z,100743.81
2022-10-11T20:32:04.761Z,100747.28
2022-10-11T20:34:33.413Z,100751.88
2022-10-11T20:37:01.990Z,100744.38
2022-10-11T20:39:30.432Z,100714.34
2022-10-11T20:41:59.232Z,100740.19
2022-10-11T20:44:27.891Z,100753.31
2022-10-11T20:47:00.286Z,100747.94
2022-10-11T20:49:32.084Z,100741.94
2022-10-11T20:52:00.963Z,100741.81
2022-10-11T20:54:30.586Z,100747.94
2022-10-11T20:57:01.582Z,100694.53
2022-10-11T20:59:30.142Z,100716.84
2022-10-11T21:02:00.003Z,100755.63
2022-10-11T21:04:29.058Z,100736.34
2022-10-11T21:06:57.877Z,100682.25
2022-10-11T21:09:26.881Z,100725.03
2022-10-11T21:11:55.419Z,100740.78
2022-10-11T21:14:24.323Z,100740.09
2022-10-11T21:16:53.049Z,100737.53
2022-10-11T21:19:21.937Z,100779.09
2022-10-11T21:21:53.666Z,100765.38
2022-10-11T21:24:22.786Z,100753.38
2022-10-11T21:26:52.315Z,100759.41
2022-10-11T21:29:22.737Z,100766.22
2022-10-11T21:31:51.401Z,100744.66
2022-10-11T21:34:20.117Z,100779.06
2022-10-11T21:36:51.771Z,100762.72
2022-10-11T21:39:20.570Z,100753.25
2022-10-11T21:41:49.162Z,100765.41
2022-10-11T21:44:17.801Z,100747.09
2022-10-11T21:47:07.175Z,100735.50
2022-10-11T21:49:35.090Z,100712.94
2022-10-11T21:52:04.641Z,100708.94
2022-10-11T21:54:33.456Z,100710.16
2022-10-11T21:57:02.288Z,100711.72
2022-10-11T21:59:33.894Z,100750.47
2022-10-11T22:02:02.631Z,100743.28
2022-10-11T22:04:31.813Z,100722.97
2022-10-11T22:07:01.321Z,100754.91
2022-10-11T22:09:30.581Z,100754.84
2022-10-11T22:11:59.541Z,100747.25
2022-10-11T22:14:29.221Z,100732.66
2022-10-11T22:16:58.118Z,100744.84
2022-10-11T22:19:26.786Z,100765.63
2022-10-11T22:21:55.455Z,100734.56
2022-10-11T22:24:24.150Z,100722.09
2022-10-11T22:26:52.964Z,100745.50
2022-10-11T22:29:21.707Z,100698.50
2022-10-11T22:31:50.527Z,100721.56
2022-10-11T22:34:19.322Z,100737.09
2022-10-11T22:36:48.544Z,100755.75
2022-10-11T22:39:16.983Z,100763.56
2022-10-11T22:41:45.801Z,100735.59
2022-10-11T22:44:15.014Z,100761.38
2022-10-11T22:46:43.663Z,100767.31
2022-10-11T22:49:12.430Z,100740.97
2022-10-11T22:51:41.239Z,100747.78
2022-10-11T22:54:09.748Z,100735.94
2022-10-11T22:56:40.849Z,100734.41
2022-10-11T22:59:10.462Z,100759.16
2022-10-11T23:01:39.389Z,100756.31
2022-10-11T23:04:08.142Z,100777.88
2022-10-11T23:06:37.230Z,100763.97
2022-10-11T23:09:05.630Z,100756.19
2022-10-11T23:11:34.642Z,100777.53
2022-10-11T23:14:03.340Z,100772.25
2022-10-11T23:16:32.160Z,100752.81
2022-10-11T23:19:01.205Z,100749.38
2022-10-11T23:21:30.430Z,100744.00
2022-10-11T23:23:59.501Z,100759.38
2022-10-11T23:26:28.350Z,100787.13
2022-10-11T23:28:57.899Z,100770.00
2022-10-11T23:31:26.711Z,100785.81
2022-10-11T23:33:55.573Z,100760.84
2022-10-11T23:36:26.712Z,100767.75
2022-10-11T23:38:58.584Z,100748.00
2022-10-11T23:41:29.703Z,100756.81
2022-10-11T23:43:59.241Z,100757.03
2022-10-11T23:46:29.071Z,100751.34
2022-10-11T23:48:57.642Z,100757.28
2022-10-11T23:51:26.730Z,100722.28
2022-10-11T23:53:55.304Z,100755.88
2022-10-11T23:56:24.886Z,100712.09
2022-10-11T23:58:53.968Z,100745.94
